Time;durP1;ratioP1;P1;durP2;ratioP2;P2;SDS_P1;SDS_P2;PMS_P1;PMS_P2;Temp;Humidity;BMP_temperature;BMP_pressure;BME280_temperature;BME280_humidity;BME280_pressure;Samples;Min_cycle;Max_cycle;Signal;HPM_P1;HPM_P2
2022/06/28 00:03:12;;;;;;;4.13;2.13;;;;;;;16.31;94.15;100312.72;12212573;19;20002;-79
2022/06/28 00:07:14;;;;;;;5.00;2.10;;;;;;;16.19;95.19;100312.13;12203690;19;20010;-79
2022/06/28 00:11:16;;;;;;;4.93;2.08;;;;;;;16.11;95.91;100309.88;12198491;19;20006;-79
2022/06/28 00:19:38;;;;;;;3.05;1.85;;;;;;;15.94;96.90;100308.19;12182957;19;20066;-78
2022/06/28 00:23:42;;;;;;;6.13;1.77;;;;;;;15.87;98.91;100312.31;12214439;19;20037;-79
2022/06/28 00:27:44;;;;;;;3.72;2.08;;;;;;;15.82;99.43;100315.06;12212581;19;20029;-80
2022/06/28 00:31:46;;;;;;;3.90;2.05;;;;;;;15.75;99.12;100309.78;12196380;19;20014;-78
2022/06/28 00:35:48;;;;;;;4.15;1.80;;;;;;;15.68;100.00;100309.22;12204355;19;20006;-79
2022/06/28 00:39:50;;;;;;;4.10;1.80;;;;;;;15.62;100.00;100322.19;12214191;19;20010;-79
2022/06/28 00:43:52;;;;;;;3.72;2.10;;;;;;;15.58;100.00;100325.78;12194112;19;20428;-78
2022/06/28 00:47:59;;;;;;;6.10;2.22;;;;;;;15.55;100.00;100318.81;12212399;19;20014;-78
2022/06/28 00:52:02;;;;;;;3.30;2.25;;;;;;;15.50;100.00;100333.53;12209611;19;20006;-76
2022/06/28 00:56:04;;;;;;;;;;;;;;;15.43;100.00;100324.59;12187931;19;20011;-80
2022/06/28 01:00:07;;;;;;;4.38;2.20;;;;;;;15.37;100.00;100327.63;12208750;19;19911;-79
2022/06/28 01:04:09;;;;;;;5.53;2.35;;;;;;;15.31;100.00;100334.25;12216126;19;20010;-79
2022/06/28 01:08:11;;;;;;;3.85;2.08;;;;;;;15.24;100.00;100329.78;12190423;19;20011;-79
2022/06/28 01:12:13;;;;;;;7.17;2.30;;;;;;;15.19;100.00;100331.69;12215636;19;20074;-79
2022/06/28 01:16:17;;;;;;;5.13;2.30;;;;;;;15.15;100.00;100338.88;12210528;19;20021;-79
2022/06/28 01:20:21;;;;;;;6.63;2.40;;;;;;;15.11;100.00;100337.72;12187807;19;20011;-79
2022/06/28 01:24:40;;;;;;;7.20;2.00;;;;;;;15.07;100.00;100339.38;12209507;19;20021;-79
2022/06/28 01:28:52;;;;;;;5.22;2.15;;;;;;;14.99;100.00;100333.22;12186749;19;20011;-78
2022/06/28 01:33:03;;;;;;;5.60;2.55;;;;;;;14.93;100.00;100325.97;12209014;19;20547;-78
2022/06/28 01:37:07;;;;;;;5.07;2.70;;;;;;;14.88;100.00;100334.25;12206296;19;20015;-78
2022/06/28 01:41:32;;;;;;;;;;;;;;;14.80;100.00;100321.69;12179979;19;20007;-76
2022/06/28 01:45:33;;;;;;;8.35;2.80;;;;;;;14.75;100.00;100335.53;12210717;19;19933;-80
2022/06/28 01:49:35;;;;;;;7.15;2.80;;;;;;;14.68;100.00;100332.13;12182136;19;20488;-79
2022/06/28 01:53:37;;;;;;;4.53;2.60;;;;;;;14.63;100.00;100329.31;12213038;19;20015;-77
2022/06/28 01:58:05;;;;;;;5.18;2.78;;;;;;;14.62;100.00;100333.19;12208562;19;20020;-79
2022/06/28 02:02:11;;;;;;;8.85;3.08;;;;;;;14.56;100.00;100337.03;12189921;19;20089;-79
2022/06/28 02:06:31;;;;;;;6.93;3.35;;;;;;;14.51;100.00;100336.94;12206662;19;20081;-79
2022/06/28 02:10:38;;;;;;;6.85;3.38;;;;;;;14.51;100.00;100342.47;12176160;19;20027;-79
2022/06/28 02:14:40;;;;;;;6.30;3.47;;;;;;;14.51;100.00;100339.72;12190282;19;20007;-78
2022/06/28 02:18:42;;;;;;;7.47;3.33;;;;;;;14.52;100.00;100338.66;12199924;19;20034;-78
2022/06/28 02:22:47;;;;;;;7.00;3.55;;;;;;;14.49;100.00;100334.44;12167886;19;20033;-78
2022/06/28 02:26:48;;;;;;;6.07;3.53;;;;;;;14.52;100.00;100336.72;12201894;19;20464;-78
2022/06/28 02:30:50;;;;;;;6.93;3.65;;;;;;;14.54;100.00;100342.81;12204541;19;20586;-78
2022/06/28 02:43:13;;;;;;;10.90;4.57;;;;;;;14.55;100.00;100355.59;12204254;19;20050;-78
2022/06/28 02:47:15;;;;;;;6.75;3.70;;;;;;;14.53;100.00;100360.56;12184580;19;20003;-79
2022/06/28 02:51:17;;;;;;;8.35;4.40;;;;;;;14.53;100.00;100356.97;12194391;19;20799;-79
2022/06/28 02:55:19;;;;;;;7.47;4.43;;;;;;;14.51;100.00;100354.44;12204235;19;20024;-78
2022/06/28 02:59:20;;;;;;;7.32;4.75;;;;;;;14.49;100.00;100359.41;12179337;19;20003;-78
2022/06/28 03:03:22;;;;;;;11.93;4.90;;;;;;;14.47;100.00;100366.28;12208295;19;20011;-79
2022/06/28 03:07:24;;;;;;;7.25;4.18;;;;;;;14.41;100.00;100365.41;12184864;19;20520;-80
2022/06/28 03:11:25;;;;;;;8.30;4.82;;;;;;;14.37;100.00;100372.59;12198870;19;20014;-80
2022/06/28 03:15:27;;;;;;;7.75;4.57;;;;;;;14.34;100.00;100367.56;12201002;19;20018;-79
2022/06/28 03:19:32;;;;;;;7.32;4.88;;;;;;;14.31;100.00;100368.09;12176143;19;20372;-79
2022/06/28 03:23:33;;;;;;;10.18;5.00;;;;;;;14.28;100.00;100366.66;12201280;19;20070;-77
2022/06/28 03:27:35;;;;;;;8.80;5.28;;;;;;;14.28;100.00;100374.97;12197927;19;20042;-79
2022/06/28 03:31:38;;;;;;;10.30;5.20;;;;;;;14.22;100.00;100373.25;12184288;19;20481;-80
2022/06/28 03:35:40;;;;;;;8.33;5.07;;;;;;;14.15;100.00;100380.91;12202050;19;20050;-79
2022/06/28 03:39:42;;;;;;;7.85;4.60;;;;;;;14.12;100.00;100379.50;12215689;19;20768;-80
2022/06/28 03:43:44;;;;;;;6.40;4.27;;;;;;;14.12;100.00;100390.59;12188305;19;20958;-78
2022/06/28 03:47:46;;;;;;;9.00;4.30;;;;;;;14.10;100.00;100387.25;12213163;19;20010;-80
2022/06/28 03:52:28;;;;;;;7.70;4.97;;;;;;;14.06;100.00;100386.09;12189738;19;20040;-79
2022/06/28 03:56:42;;;;;;;6.97;3.92;;;;;;;14.03;100.00;100385.75;12201856;19;20034;-80
2022/06/28 04:00:44;;;;;;;7.50;4.37;;;;;;;14.03;100.00;100399.63;12213459;19;20010;-79
2022/06/28 04:04:46;;;;;;;6.38;3.97;;;;;;;14.00;100.00;100400.13;12181602;19;20014;-80
2022/06/28 04:08:48;;;;;;;7.70;4.20;;;;;;;13.99;100.00;100404.84;12206476;19;20041;-78
2022/06/28 04:12:51;;;;;;;6.60;4.40;;;;;;;13.97;100.00;100407.03;12200366;19;20020;-79
2022/06/28 04:16:54;;;;;;;;;;;;;;;13.95;100.00;100409.25;12182733;19;20046;-79
2022/06/28 04:21:10;;;;;;;6.38;3.95;;;;;;;13.89;100.00;100407.47;12203931;19;19978;-77
2022/06/28 04:25:14;;;;;;;8.00;4.38;;;;;;;13.88;100.00;100414.13;12206333;19;20017;-77
2022/06/28 04:29:20;;;;;;;6.70;4.20;;;;;;;13.91;100.00;100416.38;12182261;19;20014;-80
2022/06/28 04:33:22;;;;;;;5.40;4.05;;;;;;;13.94;100.00;100415.84;12206026;19;20029;-79
2022/06/28 04:37:24;;;;;;;8.25;4.68;;;;;;;13.98;100.00;100421.72;12186587;19;20006;-80
2022/06/28 04:41:27;;;;;;;10.02;4.25;;;;;;;14.03;100.00;100427.34;12226686;19;20006;-77
2022/06/28 04:45:31;;;;;;;8.50;4.30;;;;;;;14.06;100.00;100424.88;12242172;19;20017;-80
2022/06/28 04:49:40;;;;;;;6.10;4.13;;;;;;;14.11;100.00;100419.41;12182406;19;20083;-79
2022/06/28 04:53:45;;;;;;;6.93;3.93;;;;;;;14.19;100.00;100411.72;12196341;19;20014;-77
2022/06/28 04:57:48;;;;;;;10.30;4.30;;;;;;;14.24;100.00;100409.84;12210691;19;20018;-80
2022/06/28 05:01:51;;;;;;;;;;;;;;;14.30;100.00;100416.28;12189025;19;20464;-80
2022/06/28 05:05:53;;;;;;;6.00;3.50;;;;;;;14.36;100.00;100415.25;12201525;19;19926;-79
2022/06/28 05:09:55;;;;;;;6.00;4.38;;;;;;;14.41;100.00;100404.22;12208242;19;20038;-80
2022/06/28 05:13:56;;;;;;;6.43;3.72;;;;;;;14.49;100.00;100414.84;12182285;19;20653;-80
2022/06/28 05:17:59;;;;;;;7.77;4.33;;;;;;;14.55;100.00;100411.06;12200475;19;20030;-80
2022/06/28 05:22:00;;;;;;;7.68;4.18;;;;;;;14.61;100.00;100408.34;12206690;19;20093;-80
2022/06/28 05:26:05;;;;;;;6.70;3.65;;;;;;;14.70;100.00;100404.00;12185637;19;20033;-79
2022/06/28 05:30:17;;;;;;;6.57;3.55;;;;;;;14.83;100.00;100409.09;12198611;19;20071;-79
2022/06/28 05:34:19;;;;;;;8.13;3.90;;;;;;;14.94;100.00;100399.78;12200235;19;20014;-79
2022/06/28 05:38:21;;;;;;;7.15;3.58;;;;;;;15.06;100.00;100394.03;12195132;19;20535;-80
2022/06/28 05:42:22;;;;;;;6.78;3.65;;;;;;;15.24;100.00;100403.91;12201206;19;20485;-80
2022/06/28 05:46:25;;;;;;;7.68;3.67;;;;;;;15.39;100.00;100404.00;12199835;19;20035;-80
2022/06/28 05:50:27;;;;;;;5.35;3.38;;;;;;;15.56;100.00;100386.34;12195110;19;20013;-79
2022/06/28 05:54:28;;;;;;;4.90;3.38;;;;;;;15.74;100.00;100391.47;12202587;19;20050;-79
2022/06/28 05:58:30;;;;;;;8.85;3.80;;;;;;;15.97;100.00;100397.69;12179852;19;20024;-79
2022/06/28 06:02:39;;;;;;;5.57;3.20;;;;;;;16.15;100.00;100399.97;12204264;19;20003;-80
2022/06/28 06:06:42;;;;;;;6.15;3.55;;;;;;;16.31;100.00;100400.88;12209999;19;20014;-79
2022/06/28 06:10:44;;;;;;;5.65;3.40;;;;;;;16.48;100.00;100408.97;12171536;19;20081;-79
2022/06/28 06:14:45;;;;;;;6.60;3.10;;;;;;;16.62;100.00;100401.75;12201990;19;20077;-79
2022/06/28 06:18:47;;;;;;;5.55;2.75;;;;;;;16.74;100.00;100401.50;12192930;19;20011;-79
2022/06/28 06:22:49;;;;;;;7.45;3.10;;;;;;;16.90;100.00;100406.03;12178115;19;20077;-79
2022/06/28 06:27:25;;;;;;;5.28;2.53;;;;;;;17.09;99.23;100409.06;12191640;19;20035;-80
2022/06/28 06:31:28;;;;;;;4.47;2.13;;;;;;;17.28;99.66;100409.34;12173385;19;20514;-78
2022/06/28 06:35:48;;;;;;;3.45;2.25;;;;;;;17.39;94.30;100413.78;12207883;19;20024;-81
2022/06/28 06:39:51;;;;;;;3.45;1.98;;;;;;;17.58;92.54;100419.63;12200361;19;20380;-80
2022/06/28 06:43:53;;;;;;;6.50;1.80;;;;;;;17.69;90.53;100414.84;12172940;19;20094;-79
2022/06/28 06:47:55;;;;;;;3.72;1.90;;;;;;;17.86;87.99;100404.25;12184314;19;20011;-79
2022/06/28 06:51:57;;;;;;;3.43;1.60;;;;;;;17.99;84.36;100411.16;12188548;19;20022;-80
2022/06/28 06:56:00;;;;;;;2.40;1.30;;;;;;;18.28;82.69;100421.66;12175505;19;20013;-81
2022/06/28 07:00:04;;;;;;;3.58;1.27;;;;;;;18.44;78.60;100417.63;12196859;19;20027;-79
2022/06/28 07:04:08;;;;;;;1.73;1.10;;;;;;;18.59;76.36;100409.19;12179538;19;20918;-79
2022/06/28 07:08:10;;;;;;;2.85;1.40;;;;;;;18.87;76.58;100407.63;12182531;19;20031;-81
2022/06/28 07:12:28;;;;;;;2.67;1.25;;;;;;;19.06;74.80;100398.53;12210558;19;20381;-81
2022/06/28 07:16:30;;;;;;;1.17;1.02;;;;;;;19.31;72.95;100391.91;12187343;19;20622;-77
2022/06/28 07:20:32;;;;;;;1.40;1.05;;;;;;;19.47;71.60;100399.00;12208696;19;20014;-81
2022/06/28 07:24:34;;;;;;;1.63;1.30;;;;;;;19.74;71.50;100397.63;12215981;19;20024;-79
2022/06/28 07:28:36;;;;;;;3.80;1.60;;;;;;;19.76;66.80;100403.78;12184859;19;20055;-81
2022/06/28 07:32:38;;;;;;;4.97;1.40;;;;;;;19.88;67.20;100403.38;12211030;19;20811;-81
2022/06/28 07:36:41;;;;;;;4.15;1.50;;;;;;;20.00;65.13;100395.38;12218206;19;20097;-81
2022/06/28 07:40:43;;;;;;;1.67;1.30;;;;;;;20.25;65.82;100395.03;12186049;19;20015;-80
2022/06/28 07:45:10;;;;;;;2.85;1.25;;;;;;;20.57;62.90;100393.50;12209409;19;20041;-81
2022/06/28 07:49:12;;;;;;;2.03;1.20;;;;;;;20.83;61.87;100391.16;12209415;19;20373;-79
2022/06/28 07:53:14;;;;;;;4.93;2.10;;;;;;;20.91;62.40;100386.81;12185335;19;20407;-80
2022/06/28 07:57:38;;;;;;;2.92;1.45;;;;;;;21.04;62.30;100382.44;12209007;19;20035;-81
2022/06/28 08:01:42;;;;;;;3.05;1.48;;;;;;;21.16;61.95;100386.41;12178465;19;20037;-81
2022/06/28 08:05:53;;;;;;;2.85;1.38;;;;;;;21.25;60.95;100386.53;12218851;19;20082;-77
2022/06/28 08:09:58;;;;;;;2.75;1.58;;;;;;;21.42;60.92;100382.34;12242915;19;20003;-83
2022/06/28 08:14:00;;;;;;;8.02;1.85;;;;;;;21.63;60.03;100377.19;12185177;19;20025;-79
2022/06/28 08:18:03;;;;;;;2.63;1.48;;;;;;;21.69;56.95;100371.19;12208717;19;20014;-79
2022/06/28 08:22:05;;;;;;;2.75;1.20;;;;;;;21.91;57.44;100364.84;12206859;19;20014;-80
2022/06/28 08:26:07;;;;;;;2.67;1.30;;;;;;;22.13;57.82;100372.53;12188433;19;20019;-80
2022/06/28 08:30:09;;;;;;;2.42;1.38;;;;;;;22.34;56.85;100363.66;12199903;19;20010;-81
2022/06/28 08:34:12;;;;;;;2.05;1.20;;;;;;;22.44;53.56;100363.44;12216357;19;20006;-82
2022/06/28 08:38:14;;;;;;;3.37;1.27;;;;;;;22.81;53.16;100365.06;12198336;19;20082;-82
2022/06/28 08:42:24;;;;;;;5.20;1.63;;;;;;;22.89;52.36;100363.50;12206225;19;20021;-82
2022/06/28 08:46:25;;;;;;;2.45;1.25;;;;;;;22.85;51.61;100354.88;12213432;19;20047;-83
2022/06/28 08:50:38;;;;;;;2.50;1.20;;;;;;;23.00;51.60;100348.06;12174605;19;20003;-82
2022/06/28 08:54:41;;;;;;;2.28;1.00;;;;;;;23.21;50.76;100345.56;12199193;19;20010;-83
2022/06/28 08:58:44;;;;;;;1.38;0.95;;;;;;;23.40;48.11;100328.44;12187959;19;20032;-81
2022/06/28 09:02:47;;;;;;;2.17;1.08;;;;;;;23.46;47.98;100329.97;12210394;19;20469;-81
2022/06/28 09:06:48;;;;;;;5.30;1.08;;;;;;;23.45;46.90;100317.06;12200103;19;20007;-83
2022/06/28 09:10:50;;;;;;;2.35;1.23;;;;;;;23.57;47.52;100311.66;12190783;19;20082;-82
2022/06/28 09:14:52;;;;;;;1.77;1.15;;;;;;;23.66;47.16;100303.25;12203599;19;20018;-82
2022/06/28 09:18:53;;;;;;;3.27;1.50;;;;;;;23.63;45.58;100307.53;12210307;19;20014;-82
2022/06/28 09:22:55;;;;;;;4.63;1.13;;;;;;;23.65;45.61;100305.22;12191695;19;20018;-82
2022/06/28 09:27:04;;;;;;;3.58;1.10;;;;;;;23.73;43.72;100299.97;12202937;19;20058;-80
2022/06/28 09:31:21;;;;;;;2.63;1.25;;;;;;;23.99;43.74;100294.44;12202909;19;20078;-84
2022/06/28 09:35:24;;;;;;;2.47;1.10;;;;;;;24.14;43.00;100298.75;12184649;19;20006;-83
2022/06/28 09:39:28;;;;;;;1.77;1.00;;;;;;;24.09;42.17;100282.84;12208982;19;20023;-83
2022/06/28 09:43:32;;;;;;;1.02;0.90;;;;;;;24.18;42.57;100277.22;12191860;19;20027;-81
2022/06/28 09:47:34;;;;;;;2.10;1.00;;;;;;;24.20;40.45;100270.09;12213811;19;20029;-85
2022/06/28 09:51:59;;;;;;;6.78;1.20;;;;;;;24.45;40.28;100268.50;12213395;19;20074;-83
2022/06/28 09:56:05;;;;;;;2.45;1.02;;;;;;;24.90;41.10;100262.47;12188293;19;20029;-83
2022/06/28 10:00:08;;;;;;;7.75;4.57;;;;;;;25.18;40.27;100264.91;12202981;19;20029;-81
2022/06/28 10:04:14;;;;;;;1.95;1.02;;;;;;;25.27;38.70;100262.06;12205324;19;20041;-84
2022/06/28 10:08:17;;;;;;;3.00;1.10;;;;;;;25.44;38.42;100257.16;12176597;19;20015;-81
2022/06/28 10:16:48;;;;;;;2.10;1.10;;;;;;;25.63;36.71;100255.91;12190977;19;20010;-83
2022/06/28 10:20:50;;;;;;;4.30;1.50;;;;;;;25.96;37.46;100256.06;12203642;19;20014;-82
2022/06/28 10:24:58;;;;;;;2.03;1.13;;;;;;;26.23;35.29;100260.34;12206942;19;20002;-81
2022/06/28 10:29:04;;;;;;;4.30;1.20;;;;;;;25.97;36.40;100234.28;12187525;19;20042;-81
2022/06/28 10:33:06;;;;;;;1.20;0.90;;;;;;;26.15;37.25;100235.84;12204715;19;20086;-81
2022/06/28 10:37:08;;;;;;;3.42;0.98;;;;;;;26.12;35.00;100225.22;12204746;19;20059;-84
2022/06/28 10:41:12;;;;;;;4.43;1.10;;;;;;;26.12;34.90;100230.88;12178812;19;20364;-81
2022/06/28 10:45:14;;;;;;;1.60;0.80;;;;;;;26.09;35.60;100223.91;12202865;19;20373;-82
2022/06/28 10:49:16;;;;;;;1.70;1.00;;;;;;;26.32;34.40;100218.72;12202238;19;20002;-82
2022/06/28 10:53:18;;;;;;;2.88;0.88;;;;;;;26.49;34.54;100209.28;12178754;19;20276;-81
2022/06/28 10:57:25;;;;;;;2.37;0.93;;;;;;;26.67;35.22;100209.13;12199736;19;20050;-81
2022/06/28 11:01:38;;;;;;;2.80;0.80;;;;;;;26.71;33.81;100196.78;12207069;19;20035;-81
2022/06/28 11:05:46;;;;;;;2.83;1.00;;;;;;;26.90;33.79;100187.75;12182749;19;20006;-82
2022/06/28 11:09:52;;;;;;;4.85;1.02;;;;;;;27.29;34.44;100198.78;12199673;19;20086;-82
2022/06/28 11:14:32;;;;;;;3.83;1.25;;;;;;;27.31;33.79;100185.94;12186937;19;20145;-83
2022/06/28 11:18:37;;;;;;;6.03;1.00;;;;;;;27.15;33.40;100174.47;12206167;19;20006;-83
2022/06/28 11:22:49;;;;;;;2.67;0.90;;;;;;;27.13;32.49;100176.81;12184725;19;20539;-82
2022/06/28 11:31:12;;;;;;;2.67;0.90;;;;;;;27.73;30.47;100163.00;12204969;19;19962;-81
2022/06/28 11:35:18;;;;;;;2.08;0.73;;;;;;;27.62;31.65;100157.00;12183808;19;20030;-81
2022/06/28 11:39:23;;;;;;;3.17;0.85;;;;;;;27.99;32.39;100162.63;12247003;19;20043;-81
2022/06/28 11:43:25;;;;;;;1.10;0.80;;;;;;;28.27;31.63;100159.78;12205225;19;21037;-82
2022/06/28 11:47:27;;;;;;;3.20;1.13;;;;;;;28.37;30.79;100147.09;12180170;19;20028;-81
2022/06/28 11:51:31;;;;;;;1.83;0.77;;;;;;;28.65;31.31;100132.94;12202976;19;20496;-83
2022/06/28 11:55:41;;;;;;;5.05;1.38;;;;;;;28.68;31.33;100122.88;12184852;19;20003;-82
2022/06/28 11:59:54;;;;;;;2.67;0.90;;;;;;;28.71;30.69;100110.81;12212680;19;20078;-82
2022/06/28 12:03:59;;;;;;;3.25;1.00;;;;;;;28.92;30.13;100105.66;12219614;19;20010;-82
2022/06/28 12:08:04;;;;;;;2.85;0.80;;;;;;;28.88;29.40;100109.59;12186364;19;20006;-84
2022/06/28 12:12:06;;;;;;;3.85;0.93;;;;;;;28.65;29.13;100110.25;12213228;19;20508;-82
2022/06/28 12:16:15;;;;;;;2.42;1.02;;;;;;;28.80;28.82;100122.78;12218445;19;20003;-82
2022/06/28 12:20:16;;;;;;;1.77;1.00;;;;;;;29.32;29.07;100121.66;12191946;19;20030;-82
2022/06/28 12:24:18;;;;;;;1.60;0.90;;;;;;;30.35;29.02;100122.34;12220480;19;20027;-82
2022/06/28 12:28:20;;;;;;;3.90;1.23;;;;;;;31.52;26.94;100102.81;12217461;19;20014;-82
2022/06/28 12:32:27;;;;;;;2.92;0.93;;;;;;;32.70;25.79;100107.13;12191282;19;20183;-85
2022/06/28 12:36:49;;;;;;;1.20;0.90;;;;;;;33.48;24.58;100100.44;12216643;19;20495;-85
2022/06/28 12:40:50;;;;;;;3.90;1.02;;;;;;;34.33;23.86;100085.75;12189409;19;20365;-84
2022/06/28 12:45:12;;;;;;;4.80;1.20;;;;;;;34.80;21.76;100082.97;12210429;19;20015;-87
2022/06/28 12:49:16;;;;;;;4.45;1.30;;;;;;;34.61;22.32;100087.03;12211287;19;20011;-83
2022/06/28 12:53:18;;;;;;;4.30;1.30;;;;;;;34.89;22.56;100083.38;12188119;19;20015;-84
2022/06/28 12:57:20;;;;;;;1.65;1.10;;;;;;;35.89;22.38;100074.63;12203101;19;20010;-84
2022/06/28 13:01:23;;;;;;;1.08;0.80;;;;;;;36.39;21.85;100062.09;12212672;19;20029;-84
2022/06/28 13:05:25;;;;;;;1.85;1.20;;;;;;;36.55;21.39;100062.41;12193579;19;20006;-82
2022/06/28 13:09:43;;;;;;;3.50;1.05;;;;;;;36.32;20.42;100050.66;12212953;19;20759;-84
2022/06/28 13:13:56;;;;;;;3.80;1.30;;;;;;;37.14;20.24;100029.94;12194810;19;20011;-86
2022/06/28 13:18:04;;;;;;;3.63;1.20;;;;;;;37.62;20.13;100018.31;12211983;19;20017;-90
2022/06/28 13:22:06;;;;;;;3.72;1.02;;;;;;;37.05;19.51;100015.25;12222450;19;20491;-84
2022/06/28 13:26:08;;;;;;;2.08;0.98;;;;;;;38.51;18.42;100001.06;12217026;19;20010;-86
2022/06/28 13:30:11;;;;;;;1.75;1.10;;;;;;;39.21;18.41;100003.13;12207646;19;20014;-85
2022/06/28 13:34:13;;;;;;;3.10;1.08;;;;;;;39.63;17.83;99984.16;12212468;19;20007;-85
2022/06/28 13:38:21;;;;;;;3.08;1.10;;;;;;;39.21;17.02;99985.84;12192816;19;20082;-85
2022/06/28 13:42:37;;;;;;;2.38;1.10;;;;;;;40.02;17.06;99981.69;12218667;19;20030;-85
2022/06/28 13:46:38;;;;;;;2.90;1.33;;;;;;;40.03;17.00;99989.06;12190607;19;20353;-84
2022/06/28 13:50:40;;;;;;;2.63;0.90;;;;;;;40.66;16.82;99997.47;12215521;19;20021;-84
2022/06/28 13:54:42;;;;;;;1.58;1.00;;;;;;;40.81;15.93;99991.31;12219797;19;20085;-81
2022/06/28 13:58:44;;;;;;;1.83;1.05;;;;;;;40.77;16.56;99991.41;12178022;19;20014;-82
2022/06/28 14:02:45;;;;;;;5.15;1.05;;;;;;;41.00;16.29;99973.06;12208728;19;20017;-81
2022/06/28 14:06:47;;;;;;;1.25;0.93;;;;;;;41.20;16.05;99967.97;12213810;19;20019;-83
2022/06/28 14:10:51;;;;;;;1.63;0.95;;;;;;;40.95;15.55;99962.03;12184762;19;20007;-83
2022/06/28 14:14:53;;;;;;;3.00;1.00;;;;;;;40.65;16.71;99951.72;12205708;19;20007;-84
2022/06/28 14:18:54;;;;;;;1.98;0.93;;;;;;;40.69;16.51;99937.97;12208901;19;20007;-82
2022/06/28 14:22:57;;;;;;;2.60;0.95;;;;;;;41.34;15.92;99931.22;12194154;19;20022;-82
2022/06/28 14:26:58;;;;;;;3.08;0.80;;;;;;;42.01;16.18;99931.25;12217184;19;20375;-82
2022/06/28 14:31:00;;;;;;;1.85;1.23;;;;;;;42.24;15.24;99929.25;12210247;19;20400;-82
2022/06/28 14:35:03;;;;;;;3.88;1.10;;;;;;;42.32;15.39;99922.78;12193452;19;20015;-82
2022/06/28 14:39:06;;;;;;;2.25;1.10;;;;;;;41.36;15.13;99935.28;12218951;19;20378;-82
2022/06/28 14:43:08;;;;;;;1.80;0.93;;;;;;;41.29;15.77;99931.78;12222361;19;20025;-83
2022/06/28 14:47:10;;;;;;;1.75;0.95;;;;;;;41.65;15.30;99925.78;12195898;19;20026;-83
2022/06/28 14:51:11;;;;;;;1.88;1.13;;;;;;;40.50;16.30;99925.25;12211565;19;20006;-83
2022/06/28 14:55:14;;;;;;;3.70;1.30;;;;;;;40.95;16.01;99928.16;12210765;19;20031;-83
2022/06/28 14:59:16;;;;;;;1.77;1.30;;;;;;;40.65;16.25;99926.53;12189867;19;20017;-83
2022/06/28 15:03:18;;;;;;;1.67;1.10;;;;;;;40.31;16.12;99913.38;12207408;19;20010;-82
2022/06/28 15:07:20;;;;;;;3.38;1.10;;;;;;;38.29;17.47;99885.44;12206042;19;20010;-82
2022/06/28 15:11:22;;;;;;;1.83;1.15;;;;;;;37.04;18.60;99875.75;12202917;19;20367;-81
2022/06/28 15:15:27;;;;;;;4.25;1.13;;;;;;;36.11;19.26;99876.63;12234816;19;20417;-82
2022/06/28 15:19:29;;;;;;;2.03;1.20;;;;;;;36.68;19.18;99873.28;12200697;19;20025;-84
2022/06/28 15:32:34;;;;;;;1.38;1.00;;;;;;;35.65;19.74;99864.25;12178593;19;19999;-84
2022/06/28 15:36:35;;;;;;;3.00;1.27;;;;;;;33.68;21.07;99869.53;12208011;19;20006;-83
2022/06/28 15:40:37;;;;;;;1.92;1.17;;;;;;;32.72;22.88;99865.06;12186170;19;20535;-84
2022/06/28 15:44:41;;;;;;;1.73;1.02;;;;;;;31.77;23.12;99861.81;12214817;19;20003;-83
2022/06/28 15:48:43;;;;;;;3.03;1.42;;;;;;;30.93;24.09;99851.06;12206922;19;20006;-83
2022/06/28 15:52:44;;;;;;;;;;;;;;;30.60;23.95;99846.94;12192460;19;20058;-83
2022/06/28 15:56:46;;;;;;;3.70;1.47;;;;;;;30.26;25.02;99829.81;12203319;19;19994;-83
2022/06/28 16:00:47;;;;;;;3.78;1.10;;;;;;;29.91;25.02;99822.31;12211303;19;20027;-82
2022/06/28 16:04:49;;;;;;;1.98;1.13;;;;;;;29.79;25.86;99825.34;12193822;19;20023;-81
2022/06/28 16:08:51;;;;;;;2.10;0.85;;;;;;;29.68;26.14;99821.50;12209782;19;20027;-83
2022/06/28 16:12:54;;;;;;;1.83;0.90;;;;;;;29.64;25.88;99821.44;12211668;19;20073;-83
2022/06/28 16:16:56;;;;;;;3.20;0.80;;;;;;;29.41;26.63;99820.56;12194079;19;20343;-82
2022/06/28 16:20:58;;;;;;;1.92;1.13;;;;;;;29.24;26.85;99817.03;12207683;19;20058;-83
2022/06/28 16:25:01;;;;;;;1.98;0.80;;;;;;;29.31;26.88;99805.00;12198127;19;20368;-82
2022/06/28 16:29:04;;;;;;;2.53;1.00;;;;;;;29.30;27.20;99797.69;12181625;19;20027;-85
2022/06/28 16:33:06;;;;;;;2.03;1.10;;;;;;;29.36;27.92;99796.19;12207239;19;20009;-83
2022/06/28 16:37:08;;;;;;;2.40;1.00;;;;;;;29.38;27.88;99792.94;12211744;19;20002;-83
2022/06/28 16:41:10;;;;;;;3.63;1.17;;;;;;;29.41;27.86;99792.19;12190157;19;20017;-83
2022/06/28 16:45:12;;;;;;;4.10;1.00;;;;;;;29.59;27.66;99786.84;12208109;19;20535;-82
2022/06/28 16:49:14;;;;;;;2.67;1.00;;;;;;;29.62;27.55;99780.44;12209043;19;20266;-82
2022/06/28 16:53:15;;;;;;;4.80;0.95;;;;;;;29.72;27.74;99776.97;12185287;19;20468;-83
2022/06/28 16:57:17;;;;;;;1.90;0.93;;;;;;;29.66;27.66;99776.47;12199402;19;20006;-82
2022/06/28 17:01:19;;;;;;;3.15;1.00;;;;;;;29.51;27.95;99768.88;12201928;19;20412;-83
2022/06/28 17:05:20;;;;;;;4.22;1.20;;;;;;;29.07;28.00;99766.44;12180915;19;20072;-82
2022/06/28 17:09:22;;;;;;;4.53;1.08;;;;;;;28.78;28.12;99762.19;12197129;19;20018;-84
2022/06/28 17:13:24;;;;;;;1.85;1.10;;;;;;;28.73;28.10;99759.63;12200440;19;20429;-83
2022/06/28 17:17:26;;;;;;;2.92;1.17;;;;;;;28.67;28.67;99752.63;12176820;19;20382;-82
2022/06/28 17:21:28;;;;;;;;;;;;;;;28.46;28.93;99758.66;12203701;19;20455;-83
2022/06/28 17:25:30;;;;;;;3.20;1.20;;;;;;;28.47;29.09;99749.81;12212693;19;19935;-83
2022/06/28 17:29:31;;;;;;;2.42;1.35;;;;;;;28.35;29.97;99752.75;12179725;19;20010;-83
2022/06/28 17:33:33;;;;;;;2.13;0.90;;;;;;;28.21;29.51;99750.41;12200291;19;20079;-82
2022/06/28 17:37:35;;;;;;;2.30;1.30;;;;;;;28.30;30.52;99747.38;12210936;19;20070;-82
2022/06/28 17:41:36;;;;;;;2.10;1.33;;;;;;;28.32;30.85;99745.81;12182390;19;20033;-84
2022/06/28 17:45:39;;;;;;;3.35;1.13;;;;;;;28.24;30.58;99757.34;12203319;19;20014;-82
2022/06/28 17:49:40;;;;;;;;;;;;;;;28.30;30.40;99744.53;12188476;19;20349;-83
2022/06/28 17:53:42;;;;;;;2.47;1.30;;;;;;;28.30;30.55;99750.19;12200842;19;19911;-82
2022/06/28 17:57:44;;;;;;;1.90;0.90;;;;;;;28.26;30.28;99746.44;12190919;19;20013;-83
2022/06/28 18:01:45;;;;;;;2.93;0.80;;;;;;;28.03;30.47;99740.69;12176405;19;20014;-82
2022/06/28 18:05:48;;;;;;;3.87;0.90;;;;;;;27.86;30.91;99730.56;12195670;19;20251;-83
2022/06/28 18:09:49;;;;;;;2.45;0.80;;;;;;;27.55;31.20;99737.91;12214827;19;20082;-83
2022/06/28 18:13:51;;;;;;;1.85;1.02;;;;;;;27.21;32.43;99731.75;12183565;19;20499;-83
2022/06/28 18:17:53;;;;;;;2.13;1.07;;;;;;;26.82;33.01;99742.78;12198886;19;20003;-84
2022/06/28 18:21:56;;;;;;;1.53;0.90;;;;;;;26.50;34.20;99729.75;12205165;19;20481;-84
2022/06/28 18:25:58;;;;;;;2.40;1.17;;;;;;;26.23;35.18;99728.50;12190916;19;20019;-83
2022/06/28 18:29:59;;;;;;;2.85;1.10;;;;;;;25.96;35.87;99730.09;12191641;19;20460;-83
2022/06/28 18:34:01;;;;;;;2.60;0.97;;;;;;;25.68;36.09;99727.97;12202908;19;20075;-85
2022/06/28 18:38:03;;;;;;;5.07;1.10;;;;;;;25.41;36.89;99724.69;12183299;19;20432;-83
2022/06/28 18:42:05;;;;;;;1.90;1.00;;;;;;;25.15;37.71;99716.53;12198070;19;20017;-83
2022/06/28 18:46:07;;;;;;;4.38;1.10;;;;;;;24.88;38.49;99714.34;12209961;19;20422;-83
2022/06/28 18:50:11;;;;;;;3.38;1.00;;;;;;;24.65;38.63;99716.72;12219944;19;20013;-82
2022/06/28 18:54:13;;;;;;;2.83;1.00;;;;;;;24.40;38.73;99708.16;12201228;19;20014;-84
2022/06/28 18:58:15;;;;;;;2.13;0.93;;;;;;;24.16;39.05;99702.41;12206532;19;20349;-84
2022/06/28 19:02:16;;;;;;;3.00;1.15;;;;;;;23.94;39.45;99704.38;12179105;19;20467;-83
2022/06/28 19:06:25;;;;;;;4.72;1.20;;;;;;;23.74;40.25;99705.19;12209156;19;20832;-83
2022/06/28 19:10:27;;;;;;;5.13;1.23;;;;;;;23.56;40.55;99704.44;12219375;19;20010;-84
2022/06/28 19:14:28;;;;;;;3.30;0.93;;;;;;;23.42;41.37;99707.47;12188539;19;20011;-85
2022/06/28 19:18:30;;;;;;;4.25;1.35;;;;;;;23.31;41.85;99720.25;12203550;19;20070;-83